»·PEaware :: N3161T KSMO-KTOA

N3161T :: KSMO-KTOA

FLIGHT INFORMATION

Flight Status: Arrived
Operator: Privately registered:
United States
More flights under this callsign
Pilot: Volker H. (8179)
Aircraft: PIPER PA-28R-201 ARROW
(P28R)
More flights by this aircraft type
Origin: KSMO Santa Monica Mun
United States
Destination: KTOA Zamperini
United States
More flights between these airports :: More routes between these airports
Route: +
File this flight plan on PilotEdge
Remarks:
Altitude:
(Current/Filed)
0ft
Speed:
(Current/Filed)
0kts
Departed: 06-Jan-18 12:45 PM
Arrived: 06-Jan-18 01:02 PM
Distance/Time
Traveled:
14nm/0:17
Distance/Time
To Go:
Arrived

Flight Plot

Page will automatically refresh every two minutes.

Flight plan parsing failed; only flown route is shown


Map Options




Map Legend


Flown Route
Filed Route
Departure Airport
Arrival Airport
Navaid (VOR, NDB)
Fix

Horizontal Profiles

Position Reports

Time Latitude Longitude Heading Altitude Ground
Speed
06-Jan-18 12:32 34.018449 -118.445597 135 178ft 0kts
06-Jan-18 12:33 34.018449 -118.445597 135 178ft 0kts
06-Jan-18 12:34 34.018449 -118.445597 135 178ft 0kts
06-Jan-18 12:35 34.018449 -118.445597 135 178ft 0kts
06-Jan-18 12:36 34.018449 -118.445597 135 178ft 0kts
06-Jan-18 12:37 34.018449 -118.445597 135 178ft 0kts
06-Jan-18 12:38 34.018449 -118.445597 135 178ft 0kts
06-Jan-18 12:39 34.018482 -118.445636 135 178ft 0kts
06-Jan-18 12:40 34.018482 -118.445636 135 178ft 0kts
06-Jan-18 12:41 34.018482 -118.445636 135 178ft 0kts
06-Jan-18 12:42 34.018482 -118.445636 135 178ft 0kts
06-Jan-18 12:43 34.018482 -118.445636 135 178ft 0kts
06-Jan-18 12:44 34.018831 -118.446205 285 178ft 2kts
06-Jan-18 12:45 34.018071 -118.447417 261 178ft 1kts
06-Jan-18 12:46 34.018185 -118.447726 330 178ft 0kts
06-Jan-18 12:47 34.018186 -118.447726 330 178ft 0kts
06-Jan-18 12:48 34.018188 -118.447727 330 178ft 0kts
06-Jan-18 12:49 34.018381 -118.447856 330 178ft 7kts
06-Jan-18 12:50 34.018429 -118.448208 230 178ft 1kts
06-Jan-18 12:51 34.006482 -118.465785 269 664ft 79kts
06-Jan-18 12:52 34.017605 -118.461159 125 1427ft 94kts
06-Jan-18 12:53 33.994949 -118.449284 159 2371ft 94kts
06-Jan-18 12:54 33.956262 -118.439289 190 2496ft 143kts
06-Jan-18 12:55 33.955607 -118.468168 346 2495ft 138kts
06-Jan-18 12:56 33.992374 -118.460826 11 2498ft 134kts
06-Jan-18 12:57 34.028739 -118.451413 11 2499ft 133kts
06-Jan-18 12:58 34.025088 -118.424704 164 2548ft 128kts
06-Jan-18 12:59 33.991510 -118.406389 151 2498ft 133kts
06-Jan-18 13:00 33.958911 -118.385628 151 2495ft 131kts
06-Jan-18 13:01 33.925785 -118.370109 159 2495ft 126kts
06-Jan-18 13:02 33.891746 -118.369077 190 2492ft 126kts
06-Jan-18 13:03 33.857777 -118.366710 162 2495ft 126kts
06-Jan-18 13:04 33.829982 -118.344598 129 2123ft 120kts
06-Jan-18 13:05 33.808899 -118.313406 129 1170ft 116kts
06-Jan-18 13:06 33.789753 -118.294690 222 1046ft 83kts
06-Jan-18 13:07 33.793794 -118.320847 286 554ft 70kts
06-Jan-18 13:08 33.802004 -118.336566 309 106ft 25kts
06-Jan-18 13:09 33.805765 -118.343262 285 106ft 0kts
06-Jan-18 13:10 33.805890 -118.345335 219 106ft 10kts
06-Jan-18 13:11 33.803257 -118.342612 129 106ft 35kts
06-Jan-18 13:12 33.802308 -118.343456 221 106ft 0kts
06-Jan-18 13:13 33.802307 -118.343458 221 106ft 0kts
06-Jan-18 13:14 33.802306 -118.343459 221 106ft 0kts
06-Jan-18 13:15 33.802305 -118.343460 221 106ft 0kts
06-Jan-18 13:16 33.802304 -118.343461 221 106ft 0kts
06-Jan-18 13:17 33.802303 -118.343462 221 106ft 0kts
06-Jan-18 13:18 33.802302 -118.343463 221 106ft 0kts
06-Jan-18 13:19 33.802301 -118.343464 221 106ft 0kts
06-Jan-18 13:20 33.802300 -118.343465 221 106ft 0kts
06-Jan-18 13:21 33.802298 -118.343467 221 106ft 0kts
06-Jan-18 13:22 33.802297 -118.343468 221 106ft 0kts

Navigation Log

Ident Type
Flight plan parsing failed, navigation log unavailable